La Grande, OR

9:30 PM PDT on March 24, 2017 (GMT -0700)
La Grande-Union County

Weather History for KLGD - August, 2013

Change the Weather History Date:

Saturday, August 10, 2013

  Actual Average Record
Temperature  
Mean Temperature 74 °F -  
Max Temperature 89 °F 85 °F 102 °F (1996)
Min Temperature 60 °F 49 °F 42 °F (1970)
Cooling Degree Days 10    
Growing Degree Days 24 (Base 50)    
Moisture  
Dew Point 45 °F    
Average Humidity 40    
Maximum Humidity 56    
Minimum Humidity 24    
Precipitation  
Precipitation 0.08 in - - ()
Sea Level Pressure  
Sea Level Pressure 29.95 in    
Wind  
Wind Speed 12 mph (NW)    
Max Wind Speed 23 mph    
Max Gust Speed 41 mph    
Visibility 10 miles    
Events Thunderstorm    
Averages and records for this station are not official NWS values.
T = Trace of Precipitation, MM = Missing Value Source: NWS Daily Summary

Daily Weather History Graph

Daily Weather History Graph

Search for Another Location

Airport or City:

Trip Planner

Search our weather history database for the weather conditions in past years. The results will help you decide how hot, cold, wet, or windy it might be!

Date:

Astronomy

Aug. 10, 2013 Rise Set
Actual Time 5:47 AM PDT 8:06 PM PDT
Civil Twilight 5:14 AM PDT 8:38 PM PDT
Nautical Twilight 4:34 AM PDT 9:19 PM PDT
Astronomical Twilight 3:48 AM PDT 10:04 PM PDT
Moon 9:53 AM PDT (8/10) 9:34 PM PDT (8/10)
Length of Visible Light 15h 24m
Length of Day
14h 18m
Waxing Crescent, 15% of the Moon is Illuminated
Aug 10
Waxing Crescent
Aug 14
First Quarter
Aug 20
Full
Aug 28
Last Quarter
Sep 5
New

Hourly Weather History & Observations

Time (PDT) Temp. Dew Point Humidity Pressure Visibility Wind Dir Wind Speed Gust Speed Precip Events Conditions
12:15 AM 73.4 °F 42.8 °F 33% 29.93 in 10.0 mi WNW 15.0 mph - N/A   Clear
12:35 AM 73.4 °F 44.6 °F 36% 29.94 in 10.0 mi WNW 15.0 mph 20.7 mph N/A   Clear
12:55 AM 71.6 °F 44.6 °F 38% 29.94 in 10.0 mi NW 18.4 mph 24.2 mph N/A   Clear
1:15 AM 69.8 °F 42.8 °F 38% 29.95 in 10.0 mi NNW 12.7 mph - N/A   Clear
1:35 AM 69.8 °F 42.8 °F 38% 29.96 in 10.0 mi NNW 11.5 mph - N/A   Clear
1:55 AM 68.0 °F 42.8 °F 40% 29.96 in 10.0 mi NNW 11.5 mph - N/A   Clear
2:15 AM 68.0 °F 42.8 °F 40% 29.96 in 10.0 mi NW 11.5 mph - N/A   Clear
2:35 AM 64.4 °F 42.8 °F 45% 29.95 in 10.0 mi North 10.4 mph - N/A   Clear
2:55 AM 64.4 °F 42.8 °F 45% 29.95 in 10.0 mi North 11.5 mph - N/A   Clear
3:15 AM 64.4 °F 42.8 °F 45% 29.96 in 10.0 mi North 13.8 mph - N/A   Clear
3:35 AM 64.4 °F 42.8 °F 45% 29.95 in 10.0 mi NNW 10.4 mph - N/A   Clear
3:55 AM 64.4 °F 42.8 °F 45% 29.95 in 10.0 mi NNW 8.1 mph - N/A   Clear
4:15 AM 62.6 °F 42.8 °F 48% 29.95 in 10.0 mi NW 5.8 mph - N/A   Clear
4:35 AM 60.8 °F 39.2 °F 45% 29.95 in 10.0 mi NNW 6.9 mph - N/A   Clear
4:55 AM 60.8 °F 41.0 °F 48% 29.95 in 10.0 mi NW 9.2 mph - N/A   Clear
5:15 AM 60.8 °F 42.8 °F 52% 29.95 in 10.0 mi NNW 11.5 mph - N/A   Clear
5:35 AM 64.4 °F 42.8 °F 45% 29.95 in 10.0 mi NW 12.7 mph - N/A   Clear
5:55 AM 64.4 °F 42.8 °F 45% 29.96 in 10.0 mi NNW 9.2 mph - N/A   Clear
6:15 AM 62.6 °F 42.8 °F 48% 29.96 in 10.0 mi NW 11.5 mph - N/A   Clear
6:35 AM 62.6 °F 42.8 °F 48% 29.96 in 10.0 mi NNW 13.8 mph - N/A   Clear
6:55 AM 64.4 °F 42.8 °F 45% 29.97 in 10.0 mi North 12.7 mph - N/A   Clear
7:15 AM 64.4 °F 42.8 °F 45% 29.97 in 10.0 mi NNW 12.7 mph - N/A   Clear
7:35 AM 66.2 °F 42.8 °F 43% 29.97 in 10.0 mi North 10.4 mph - N/A   Clear
7:55 AM 71.6 °F 44.6 °F 38% 29.97 in 10.0 mi WNW 18.4 mph 24.2 mph N/A   Clear
8:15 AM 71.6 °F 44.6 °F 38% 29.97 in 10.0 mi WNW 17.3 mph 23.0 mph N/A   Clear
8:35 AM 73.4 °F 44.6 °F 36% 29.97 in 10.0 mi WNW 17.3 mph - N/A   Clear
8:55 AM 73.4 °F 44.6 °F 36% 29.97 in 10.0 mi WNW 15.0 mph - N/A   Clear
9:15 AM 75.2 °F 44.6 °F 34% 29.97 in 10.0 mi WNW 15.0 mph - N/A   Clear
9:35 AM 75.2 °F 44.6 °F 34% 29.97 in 10.0 mi WNW 17.3 mph - N/A   Clear
9:55 AM 77.0 °F 46.4 °F 34% 29.97 in 10.0 mi WNW 12.7 mph - N/A   Clear
10:15 AM 78.8 °F 46.4 °F 32% 29.97 in 10.0 mi NW 11.5 mph - N/A   Clear
10:35 AM 80.6 °F 46.4 °F 30% 29.97 in 10.0 mi WNW 12.7 mph 17.3 mph N/A   Clear
10:55 AM 80.6 °F 46.4 °F 30% 29.97 in 10.0 mi WNW 9.2 mph - N/A   Clear
11:15 AM 82.4 °F 46.4 °F 28% 29.97 in 10.0 mi NW 11.5 mph - N/A   Clear
11:35 AM 84.2 °F 46.4 °F 27% 29.97 in 10.0 mi NW 5.8 mph 19.6 mph N/A   Clear
11:55 AM 84.2 °F 46.4 °F 27% 29.96 in 10.0 mi NW 8.1 mph - N/A   Clear
12:15 PM 84.2 °F 46.4 °F 27% 29.95 in 10.0 mi NW 8.1 mph - N/A   Clear
12:35 PM 84.2 °F 46.4 °F 27% 29.95 in 10.0 mi WNW 9.2 mph - N/A   Clear
12:55 PM 84.2 °F 46.4 °F 27% 29.94 in 10.0 mi NNE 6.9 mph - N/A   Clear
1:15 PM 86.0 °F 46.4 °F 25% 29.94 in 10.0 mi NNE 4.6 mph - N/A   Clear
1:35 PM 86.0 °F 48.2 °F 27% 29.94 in 10.0 mi WNW 6.9 mph 20.7 mph N/A   Clear
1:55 PM 87.8 °F 48.2 °F 25% 29.93 in 10.0 mi NW 6.9 mph - N/A   Clear
2:15 PM 89.6 °F 48.2 °F 24% 29.92 in 10.0 mi WNW 10.4 mph 16.1 mph N/A   Clear
2:35 PM 87.8 °F 48.2 °F 25% 29.92 in 10.0 mi WNW 11.5 mph 18.4 mph N/A   Clear
2:55 PM 87.8 °F 48.2 °F 25% 29.91 in 10.0 mi NW 15.0 mph 19.6 mph N/A   Partly Cloudy
3:15 PM 86.0 °F 46.4 °F 25% 29.91 in 10.0 mi NW 9.2 mph 18.4 mph N/A   Partly Cloudy
3:35 PM 84.2 °F 46.4 °F 27% 29.91 in 10.0 mi West 19.6 mph - N/A   Clear
3:55 PM 82.4 °F 46.4 °F 28% 29.91 in 10.0 mi WNW 19.6 mph 25.3 mph N/A   Clear
4:15 PM 80.6 °F 44.6 °F 28% 29.91 in 10.0 mi WNW 20.7 mph 26.5 mph N/A   Clear
4:35 PM 80.6 °F 44.6 °F 28% 29.91 in 10.0 mi WNW 23.0 mph 28.8 mph N/A   Clear
4:55 PM 78.8 °F 44.6 °F 30% 29.92 in 9.0 mi WNW 19.6 mph 27.6 mph N/A Thunderstorm Clear
5:15 PM 78.8 °F 46.4 °F 32% 29.89 in 10.0 mi NW 20.7 mph 26.5 mph N/A Thunderstorm Clear
5:35 PM 78.8 °F 44.6 °F 30% 29.90 in 9.0 mi NW 18.4 mph 23.0 mph N/A Thunderstorm Partly Cloudy
5:55 PM 73.4 °F 46.4 °F 38% 29.90 in 9.0 mi WNW 8.1 mph - 0.01 in Thunderstorm Thunderstorm
6:15 PM 66.2 °F 46.4 °F 49% 29.92 in 9.0 mi East 12.7 mph 41.4 mph 0.05 in Thunderstorm Overcast
6:35 PM 66.2 °F 48.2 °F 52% 29.93 in 10.0 mi WSW 11.5 mph - 0.05 in Thunderstorm Scattered Clouds
6:55 PM 66.2 °F 48.2 °F 52% 29.92 in 10.0 mi Calm Calm - 0.05 in   Scattered Clouds
7:15 PM 69.8 °F 50.0 °F 49% 29.93 in 10.0 mi NW 3.5 mph - N/A   Mostly Cloudy
7:35 PM 66.2 °F 50.0 °F 56% 29.95 in 10.0 mi SSE 5.8 mph - 0.01 in Thunderstorm Thunderstorm
7:55 PM 66.2 °F 48.2 °F 52% 29.95 in 10.0 mi West 8.1 mph - 0.01 in Thunderstorm Overcast
8:15 PM 66.2 °F 48.2 °F 52% 29.96 in 10.0 mi Calm Calm - N/A   Mostly Cloudy
8:35 PM 64.4 °F 48.2 °F 56% 29.97 in 10.0 mi Calm Calm - N/A   Partly Cloudy
8:55 PM 66.2 °F 48.2 °F 52% 29.97 in 10.0 mi WSW 6.9 mph - N/A   Scattered Clouds
9:15 PM 64.4 °F 48.2 °F 56% 29.97 in 10.0 mi Calm Calm - N/A   Mostly Cloudy
9:35 PM 62.6 °F 46.4 °F 55% 29.96 in 10.0 mi North 5.8 mph - N/A   Mostly Cloudy
9:55 PM 64.4 °F 48.2 °F 56% 29.96 in 10.0 mi WNW 5.8 mph - N/A   Partly Cloudy
10:15 PM 62.6 °F 46.4 °F 55% 29.97 in 10.0 mi Calm Calm - N/A   Clear
10:35 PM 62.6 °F 46.4 °F 55% 29.99 in 10.0 mi SSE 11.5 mph - N/A   Scattered Clouds
10:55 PM 64.4 °F 48.2 °F 56% 30.01 in 10.0 mi SW 4.6 mph - N/A Thunderstorm Mostly Cloudy
11:15 PM 64.4 °F 48.2 °F 56% 29.97 in 10.0 mi NNE 17.3 mph 20.7 mph N/A Thunderstorm Thunderstorm
11:35 PM 62.6 °F 46.4 °F 55% 29.99 in 10.0 mi SE 3.5 mph 25.3 mph 0.01 in   Scattered Clouds
11:55 PM 64.4 °F 46.4 °F 52% 30.00 in 10.0 mi SSW 5.8 mph - 0.01 in   Clear